Ponce Inlet, Florida
Current Conditions -  °F | °C
As of 2:47 PM on Thursday 18 Dec 2014 (Local Time) from KEVB Reporting Station
Clear Clear  
Wind Chill: 64°   Ceiling: Unl
Heat Index: 64°   Visibility: 10mi
Dew Point: 48°   Wind: 7mph
Humidity: 56%   Direction: 40°NE
Pressure: 30.11"   Gusts: NA
Location:  29.1091°N, 80.9979°W
Report Text: KEVB 181947Z 04006KT 10SM SKC 18/09 A3011
Loading
Personal Weather Stations






























Interactive Weather Map New forecast layout! Learn more

10-Day Weather Forecast

Advertisements
Track Severe Weather on mobile